sensor_id;sensor_type;location;lat;lon;timestamp;P1;durP1;ratioP1;P2;durP2;ratioP2
7829;SDS011;3960;51.86894000;5.39848000;2023-03-23T00:00:31;7.40;;;3.45;;
7829;SDS011;3960;51.86894000;5.39848000;2023-03-23T00:02:57;5.22;;;3.20;;
7829;SDS011;3960;51.86894000;5.39848000;2023-03-23T00:05:22;7.35;;;3.20;;
7829;SDS011;3960;51.86894000;5.39848000;2023-03-23T00:07:47;4.95;;;3.25;;
7829;SDS011;3960;51.86894000;5.39848000;2023-03-23T00:10:17;4.75;;;2.92;;
7829;SDS011;3960;51.86894000;5.39848000;2023-03-23T00:12:42;6.85;;;2.90;;
7829;SDS011;3960;51.86894000;5.39848000;2023-03-23T00:15:09;5.50;;;2.95;;
7829;SDS011;3960;51.86894000;5.39848000;2023-03-23T00:17:38;9.02;;;3.33;;
7829;SDS011;3960;51.86894000;5.39848000;2023-03-23T00:20:05;5.38;;;2.92;;
7829;SDS011;3960;51.86894000;5.39848000;2023-03-23T00:22:31;4.40;;;2.80;;
7829;SDS011;3960;51.86894000;5.39848000;2023-03-23T00:25:02;7.30;;;3.27;;
7829;SDS011;3960;51.86894000;5.39848000;2023-03-23T00:27:27;10.32;;;3.60;;
7829;SDS011;3960;51.86894000;5.39848000;2023-03-23T00:29:53;5.85;;;3.08;;
7829;SDS011;3960;51.86894000;5.39848000;2023-03-23T00:32:22;6.65;;;3.47;;
7829;SDS011;3960;51.86894000;5.39848000;2023-03-23T00:34:52;6.43;;;3.20;;
7829;SDS011;3960;51.86894000;5.39848000;2023-03-23T00:37:21;7.78;;;3.20;;
7829;SDS011;3960;51.86894000;5.39848000;2023-03-23T00:39:46;6.72;;;3.50;;
7829;SDS011;3960;51.86894000;5.39848000;2023-03-23T00:42:12;5.60;;;2.97;;
7829;SDS011;3960;51.86894000;5.39848000;2023-03-23T00:44:39;5.07;;;2.80;;
7829;SDS011;3960;51.86894000;5.39848000;2023-03-23T00:47:05;5.72;;;2.95;;
7829;SDS011;3960;51.86894000;5.39848000;2023-03-23T00:49:33;7.85;;;3.25;;
7829;SDS011;3960;51.86894000;5.39848000;2023-03-23T00:52:00;5.53;;;2.63;;
7829;SDS011;3960;51.86894000;5.39848000;2023-03-23T00:54:26;4.28;;;2.67;;
7829;SDS011;3960;51.86894000;5.39848000;2023-03-23T00:56:52;6.22;;;2.95;;
7829;SDS011;3960;51.86894000;5.39848000;2023-03-23T00:59:19;12.15;;;3.20;;
7829;SDS011;3960;51.86894000;5.39848000;2023-03-23T01:01:44;7.38;;;3.03;;
7829;SDS011;3960;51.86894000;5.39848000;2023-03-23T01:04:10;4.40;;;2.65;;
7829;SDS011;3960;51.86894000;5.39848000;2023-03-23T01:06:39;5.22;;;2.72;;
7829;SDS011;3960;51.86894000;5.39848000;2023-03-23T01:09:06;6.70;;;2.90;;
7829;SDS011;3960;51.86894000;5.39848000;2023-03-23T01:11:32;5.80;;;2.83;;
7829;SDS011;3960;51.86894000;5.39848000;2023-03-23T01:13:58;5.70;;;3.25;;
7829;SDS011;3960;51.86894000;5.39848000;2023-03-23T01:16:23;8.60;;;3.28;;
7829;SDS011;3960;51.86894000;5.39848000;2023-03-23T01:18:49;3.67;;;2.60;;
7829;SDS011;3960;51.86894000;5.39848000;2023-03-23T01:21:16;6.18;;;3.00;;
7829;SDS011;3960;51.86894000;5.39848000;2023-03-23T01:23:43;5.20;;;3.05;;
7829;SDS011;3960;51.86894000;5.39848000;2023-03-23T01:26:30;4.15;;;2.70;;
7829;SDS011;3960;51.86894000;5.39848000;2023-03-23T01:28:54;7.03;;;3.08;;
7829;SDS011;3960;51.86894000;5.39848000;2023-03-23T01:31:21;9.43;;;3.10;;
7829;SDS011;3960;51.86894000;5.39848000;2023-03-23T01:33:48;5.38;;;3.22;;
7829;SDS011;3960;51.86894000;5.39848000;2023-03-23T01:36:26;4.90;;;3.20;;
7829;SDS011;3960;51.86894000;5.39848000;2023-03-23T01:38:53;3.75;;;3.13;;
7829;SDS011;3960;51.86894000;5.39848000;2023-03-23T01:41:20;4.25;;;3.00;;
7829;SDS011;3960;51.86894000;5.39848000;2023-03-23T01:46:33;7.72;;;3.15;;
7829;SDS011;3960;51.86894000;5.39848000;2023-03-23T01:49:07;4.40;;;2.95;;
7829;SDS011;3960;51.86894000;5.39848000;2023-03-23T01:51:37;4.80;;;3.08;;
7829;SDS011;3960;51.86894000;5.39848000;2023-03-23T01:56:38;5.88;;;3.03;;
7829;SDS011;3960;51.86894000;5.39848000;2023-03-23T01:59:10;7.00;;;3.00;;
7829;SDS011;3960;51.86894000;5.39848000;2023-03-23T02:01:37;8.55;;;3.55;;
7829;SDS011;3960;51.86894000;5.39848000;2023-03-23T02:04:08;4.57;;;3.30;;
7829;SDS011;3960;51.86894000;5.39848000;2023-03-23T02:06:34;7.45;;;3.65;;
7829;SDS011;3960;51.86894000;5.39848000;2023-03-23T02:08:59;4.10;;;3.00;;
7829;SDS011;3960;51.86894000;5.39848000;2023-03-23T02:11:24;5.60;;;3.17;;
7829;SDS011;3960;51.86894000;5.39848000;2023-03-23T02:13:50;5.10;;;3.30;;
7829;SDS011;3960;51.86894000;5.39848000;2023-03-23T02:18:56;5.78;;;2.97;;
7829;SDS011;3960;51.86894000;5.39848000;2023-03-23T02:27:02;6.10;;;3.03;;
7829;SDS011;3960;51.86894000;5.39848000;2023-03-23T02:32:09;6.63;;;3.65;;
7829;SDS011;3960;51.86894000;5.39848000;2023-03-23T02:37:32;5.22;;;3.40;;
7829;SDS011;3960;51.86894000;5.39848000;2023-03-23T02:40:07;6.00;;;3.47;;
7829;SDS011;3960;51.86894000;5.39848000;2023-03-23T02:42:38;4.47;;;3.33;;
7829;SDS011;3960;51.86894000;5.39848000;2023-03-23T02:45:07;5.90;;;3.40;;
7829;SDS011;3960;51.86894000;5.39848000;2023-03-23T02:47:35;5.00;;;3.25;;
7829;SDS011;3960;51.86894000;5.39848000;2023-03-23T02:50:03;5.32;;;3.30;;
7829;SDS011;3960;51.86894000;5.39848000;2023-03-23T02:52:31;7.50;;;3.40;;
7829;SDS011;3960;51.86894000;5.39848000;2023-03-23T02:54:58;5.07;;;3.05;;
7829;SDS011;3960;51.86894000;5.39848000;2023-03-23T02:57:25;4.93;;;3.40;;
7829;SDS011;3960;51.86894000;5.39848000;2023-03-23T02:59:52;7.63;;;3.00;;
7829;SDS011;3960;51.86894000;5.39848000;2023-03-23T03:04:46;4.72;;;2.78;;
7829;SDS011;3960;51.86894000;5.39848000;2023-03-23T03:10:16;7.00;;;2.70;;
7829;SDS011;3960;51.86894000;5.39848000;2023-03-23T03:20:53;4.28;;;2.63;;
7829;SDS011;3960;51.86894000;5.39848000;2023-03-23T03:23:22;8.87;;;3.43;;
7829;SDS011;3960;51.86894000;5.39848000;2023-03-23T03:25:50;7.05;;;2.80;;
7829;SDS011;3960;51.86894000;5.39848000;2023-03-23T03:28:18;5.28;;;2.78;;
7829;SDS011;3960;51.86894000;5.39848000;2023-03-23T03:30:47;4.88;;;2.80;;
7829;SDS011;3960;51.86894000;5.39848000;2023-03-23T03:33:19;4.50;;;2.78;;
7829;SDS011;3960;51.86894000;5.39848000;2023-03-23T03:35:45;4.15;;;2.55;;
7829;SDS011;3960;51.86894000;5.39848000;2023-03-23T03:38:12;2.72;;;2.22;;
7829;SDS011;3960;51.86894000;5.39848000;2023-03-23T03:40:37;5.07;;;2.97;;
7829;SDS011;3960;51.86894000;5.39848000;2023-03-23T03:43:03;6.18;;;2.78;;
7829;SDS011;3960;51.86894000;5.39848000;2023-03-23T03:45:30;5.07;;;2.58;;
7829;SDS011;3960;51.86894000;5.39848000;2023-03-23T03:47:56;6.47;;;2.70;;
7829;SDS011;3960;51.86894000;5.39848000;2023-03-23T03:50:21;5.70;;;3.05;;
7829;SDS011;3960;51.86894000;5.39848000;2023-03-23T03:52:46;4.60;;;2.60;;
7829;SDS011;3960;51.86894000;5.39848000;2023-03-23T03:55:12;4.82;;;2.50;;
7829;SDS011;3960;51.86894000;5.39848000;2023-03-23T03:57:37;4.65;;;2.88;;
7829;SDS011;3960;51.86894000;5.39848000;2023-03-23T04:00:04;8.02;;;3.25;;
7829;SDS011;3960;51.86894000;5.39848000;2023-03-23T04:02:46;3.55;;;2.40;;
7829;SDS011;3960;51.86894000;5.39848000;2023-03-23T04:05:16;7.63;;;3.10;;
7829;SDS011;3960;51.86894000;5.39848000;2023-03-23T04:07:43;4.35;;;2.50;;
7829;SDS011;3960;51.86894000;5.39848000;2023-03-23T04:10:10;4.25;;;2.33;;
7829;SDS011;3960;51.86894000;5.39848000;2023-03-23T04:12:38;4.82;;;2.60;;
7829;SDS011;3960;51.86894000;5.39848000;2023-03-23T04:15:04;4.95;;;2.58;;
7829;SDS011;3960;51.86894000;5.39848000;2023-03-23T04:17:30;5.05;;;2.22;;
7829;SDS011;3960;51.86894000;5.39848000;2023-03-23T04:19:55;3.72;;;2.20;;
7829;SDS011;3960;51.86894000;5.39848000;2023-03-23T04:22:25;5.22;;;2.25;;
7829;SDS011;3960;51.86894000;5.39848000;2023-03-23T04:24:55;5.05;;;2.30;;
7829;SDS011;3960;51.86894000;5.39848000;2023-03-23T04:27:23;7.68;;;2.42;;
7829;SDS011;3960;51.86894000;5.39848000;2023-03-23T04:29:49;3.83;;;2.42;;
7829;SDS011;3960;51.86894000;5.39848000;2023-03-23T04:32:14;11.48;;;2.15;;
7829;SDS011;3960;51.86894000;5.39848000;2023-03-23T04:34:42;7.60;;;2.75;;
7829;SDS011;3960;51.86894000;5.39848000;2023-03-23T04:37:08;3.83;;;2.10;;
7829;SDS011;3960;51.86894000;5.39848000;2023-03-23T04:39:33;7.53;;;2.28;;
7829;SDS011;3960;51.86894000;5.39848000;2023-03-23T04:41:59;8.98;;;2.63;;
7829;SDS011;3960;51.86894000;5.39848000;2023-03-23T04:44:26;4.38;;;2.25;;
7829;SDS011;3960;51.86894000;5.39848000;2023-03-23T04:46:52;10.82;;;2.42;;
7829;SDS011;3960;51.86894000;5.39848000;2023-03-23T04:49:19;7.90;;;2.17;;
7829;SDS011;3960;51.86894000;5.39848000;2023-03-23T04:51:46;7.97;;;2.65;;
7829;SDS011;3960;51.86894000;5.39848000;2023-03-23T04:54:12;6.10;;;2.50;;
7829;SDS011;3960;51.86894000;5.39848000;2023-03-23T04:56:38;6.95;;;2.20;;
7829;SDS011;3960;51.86894000;5.39848000;2023-03-23T04:59:03;7.72;;;2.58;;
7829;SDS011;3960;51.86894000;5.39848000;2023-03-23T05:01:28;10.10;;;2.40;;
7829;SDS011;3960;51.86894000;5.39848000;2023-03-23T05:03:54;8.98;;;2.33;;
7829;SDS011;3960;51.86894000;5.39848000;2023-03-23T05:06:19;10.82;;;2.67;;
7829;SDS011;3960;51.86894000;5.39848000;2023-03-23T05:08:45;7.00;;;2.35;;
7829;SDS011;3960;51.86894000;5.39848000;2023-03-23T05:11:10;6.05;;;2.15;;
7829;SDS011;3960;51.86894000;5.39848000;2023-03-23T05:13:36;11.35;;;2.50;;
7829;SDS011;3960;51.86894000;5.39848000;2023-03-23T05:16:04;7.32;;;2.50;;
7829;SDS011;3960;51.86894000;5.39848000;2023-03-23T05:18:30;9.57;;;2.35;;
7829;SDS011;3960;51.86894000;5.39848000;2023-03-23T05:20:59;6.70;;;2.20;;
7829;SDS011;3960;51.86894000;5.39848000;2023-03-23T05:23:25;9.30;;;2.75;;
7829;SDS011;3960;51.86894000;5.39848000;2023-03-23T05:25:54;9.00;;;2.70;;
7829;SDS011;3960;51.86894000;5.39848000;2023-03-23T05:28:20;9.05;;;2.50;;
7829;SDS011;3960;51.86894000;5.39848000;2023-03-23T05:30:47;7.28;;;2.10;;
7829;SDS011;3960;51.86894000;5.39848000;2023-03-23T05:33:12;8.15;;;2.30;;
7829;SDS011;3960;51.86894000;5.39848000;2023-03-23T05:35:37;8.20;;;2.10;;
7829;SDS011;3960;51.86894000;5.39848000;2023-03-23T05:38:03;11.07;;;2.03;;
7829;SDS011;3960;51.86894000;5.39848000;2023-03-23T05:40:29;7.85;;;2.20;;
7829;SDS011;3960;51.86894000;5.39848000;2023-03-23T05:42:55;10.35;;;2.30;;
7829;SDS011;3960;51.86894000;5.39848000;2023-03-23T05:45:20;6.63;;;2.70;;
7829;SDS011;3960;51.86894000;5.39848000;2023-03-23T05:47:46;6.65;;;1.67;;
7829;SDS011;3960;51.86894000;5.39848000;2023-03-23T05:50:12;9.52;;;2.38;;
7829;SDS011;3960;51.86894000;5.39848000;2023-03-23T05:52:37;4.70;;;1.83;;
7829;SDS011;3960;51.86894000;5.39848000;2023-03-23T05:55:04;5.07;;;2.08;;
7829;SDS011;3960;51.86894000;5.39848000;2023-03-23T05:57:30;9.13;;;1.90;;
7829;SDS011;3960;51.86894000;5.39848000;2023-03-23T05:59:56;6.65;;;1.92;;
7829;SDS011;3960;51.86894000;5.39848000;2023-03-23T06:02:22;7.93;;;2.10;;
7829;SDS011;3960;51.86894000;5.39848000;2023-03-23T06:04:49;10.65;;;2.08;;
7829;SDS011;3960;51.86894000;5.39848000;2023-03-23T06:07:14;7.13;;;1.60;;
7829;SDS011;3960;51.86894000;5.39848000;2023-03-23T06:09:40;8.07;;;2.20;;
7829;SDS011;3960;51.86894000;5.39848000;2023-03-23T06:12:06;7.32;;;2.15;;
7829;SDS011;3960;51.86894000;5.39848000;2023-03-23T06:14:33;4.20;;;1.70;;
7829;SDS011;3960;51.86894000;5.39848000;2023-03-23T06:16:58;5.20;;;1.70;;
7829;SDS011;3960;51.86894000;5.39848000;2023-03-23T06:19:23;12.18;;;2.83;;
7829;SDS011;3960;51.86894000;5.39848000;2023-03-23T06:21:51;5.25;;;2.08;;
7829;SDS011;3960;51.86894000;5.39848000;2023-03-23T06:24:17;5.82;;;2.03;;
7829;SDS011;3960;51.86894000;5.39848000;2023-03-23T06:26:42;7.22;;;2.25;;
7829;SDS011;3960;51.86894000;5.39848000;2023-03-23T06:29:09;11.77;;;2.50;;
7829;SDS011;3960;51.86894000;5.39848000;2023-03-23T06:31:38;7.82;;;1.88;;
7829;SDS011;3960;51.86894000;5.39848000;2023-03-23T06:34:07;6.40;;;1.98;;
7829;SDS011;3960;51.86894000;5.39848000;2023-03-23T06:36:33;9.10;;;3.00;;
7829;SDS011;3960;51.86894000;5.39848000;2023-03-23T06:38:59;5.75;;;1.88;;
7829;SDS011;3960;51.86894000;5.39848000;2023-03-23T06:41:26;3.75;;;1.80;;
7829;SDS011;3960;51.86894000;5.39848000;2023-03-23T06:43:51;8.60;;;2.38;;
7829;SDS011;3960;51.86894000;5.39848000;2023-03-23T06:46:16;10.13;;;2.70;;
7829;SDS011;3960;51.86894000;5.39848000;2023-03-23T06:48:42;6.10;;;2.13;;
7829;SDS011;3960;51.86894000;5.39848000;2023-03-23T06:51:07;7.57;;;2.17;;
7829;SDS011;3960;51.86894000;5.39848000;2023-03-23T06:53:32;6.97;;;2.13;;
7829;SDS011;3960;51.86894000;5.39848000;2023-03-23T06:55:58;11.05;;;2.72;;
7829;SDS011;3960;51.86894000;5.39848000;2023-03-23T06:58:24;9.35;;;2.97;;
7829;SDS011;3960;51.86894000;5.39848000;2023-03-23T07:00:53;6.30;;;2.03;;
7829;SDS011;3960;51.86894000;5.39848000;2023-03-23T07:03:21;7.82;;;2.53;;
7829;SDS011;3960;51.86894000;5.39848000;2023-03-23T07:05:47;6.30;;;2.13;;
7829;SDS011;3960;51.86894000;5.39848000;2023-03-23T07:08:12;9.27;;;2.33;;
7829;SDS011;3960;51.86894000;5.39848000;2023-03-23T07:10:37;9.50;;;2.65;;
7829;SDS011;3960;51.86894000;5.39848000;2023-03-23T07:13:03;9.68;;;2.95;;
7829;SDS011;3960;51.86894000;5.39848000;2023-03-23T07:15:29;10.25;;;2.55;;
7829;SDS011;3960;51.86894000;5.39848000;2023-03-23T07:17:54;9.07;;;2.75;;
7829;SDS011;3960;51.86894000;5.39848000;2023-03-23T07:20:20;6.50;;;2.42;;
7829;SDS011;3960;51.86894000;5.39848000;2023-03-23T07:22:45;5.93;;;2.40;;
7829;SDS011;3960;51.86894000;5.39848000;2023-03-23T07:25:11;9.32;;;2.72;;
7829;SDS011;3960;51.86894000;5.39848000;2023-03-23T07:27:36;5.72;;;2.25;;
7829;SDS011;3960;51.86894000;5.39848000;2023-03-23T07:30:02;11.15;;;2.90;;
7829;SDS011;3960;51.86894000;5.39848000;2023-03-23T07:32:28;8.02;;;2.53;;
7829;SDS011;3960;51.86894000;5.39848000;2023-03-23T07:34:53;7.13;;;2.30;;
7829;SDS011;3960;51.86894000;5.39848000;2023-03-23T07:37:19;11.80;;;2.85;;
7829;SDS011;3960;51.86894000;5.39848000;2023-03-23T07:39:44;7.97;;;2.33;;
7829;SDS011;3960;51.86894000;5.39848000;2023-03-23T07:42:10;8.05;;;2.40;;
7829;SDS011;3960;51.86894000;5.39848000;2023-03-23T07:44:35;8.48;;;3.38;;
7829;SDS011;3960;51.86894000;5.39848000;2023-03-23T07:47:01;11.27;;;3.25;;
7829;SDS011;3960;51.86894000;5.39848000;2023-03-23T07:49:26;11.00;;;2.50;;
7829;SDS011;3960;51.86894000;5.39848000;2023-03-23T07:51:52;5.38;;;2.10;;
7829;SDS011;3960;51.86894000;5.39848000;2023-03-23T07:54:17;8.65;;;3.10;;
7829;SDS011;3960;51.86894000;5.39848000;2023-03-23T07:56:43;13.02;;;3.15;;
7829;SDS011;3960;51.86894000;5.39848000;2023-03-23T07:59:10;11.15;;;3.15;;
7829;SDS011;3960;51.86894000;5.39848000;2023-03-23T08:01:36;11.18;;;3.00;;
7829;SDS011;3960;51.86894000;5.39848000;2023-03-23T08:04:01;10.07;;;3.13;;
7829;SDS011;3960;51.86894000;5.39848000;2023-03-23T08:06:27;9.98;;;3.65;;
7829;SDS011;3960;51.86894000;5.39848000;2023-03-23T08:08:52;7.38;;;2.90;;
7829;SDS011;3960;51.86894000;5.39848000;2023-03-23T08:11:19;8.80;;;2.65;;
7829;SDS011;3960;51.86894000;5.39848000;2023-03-23T08:13:45;7.13;;;2.72;;
7829;SDS011;3960;51.86894000;5.39848000;2023-03-23T08:16:11;5.63;;;2.25;;
7829;SDS011;3960;51.86894000;5.39848000;2023-03-23T08:18:37;6.80;;;2.17;;
7829;SDS011;3960;51.86894000;5.39848000;2023-03-23T08:21:04;8.95;;;2.75;;
7829;SDS011;3960;51.86894000;5.39848000;2023-03-23T08:23:30;8.57;;;2.00;;
7829;SDS011;3960;51.86894000;5.39848000;2023-03-23T08:25:56;5.60;;;2.00;;
7829;SDS011;3960;51.86894000;5.39848000;2023-03-23T08:28:21;4.20;;;1.80;;
7829;SDS011;3960;51.86894000;5.39848000;2023-03-23T08:30:47;6.20;;;1.90;;
7829;SDS011;3960;51.86894000;5.39848000;2023-03-23T08:33:13;4.05;;;2.05;;
7829;SDS011;3960;51.86894000;5.39848000;2023-03-23T08:35:39;6.13;;;2.00;;
7829;SDS011;3960;51.86894000;5.39848000;2023-03-23T08:38:04;7.47;;;1.92;;
7829;SDS011;3960;51.86894000;5.39848000;2023-03-23T08:40:29;5.22;;;1.83;;
7829;SDS011;3960;51.86894000;5.39848000;2023-03-23T08:42:55;3.35;;;1.85;;
7829;SDS011;3960;51.86894000;5.39848000;2023-03-23T08:45:21;3.70;;;1.52;;
7829;SDS011;3960;51.86894000;5.39848000;2023-03-23T08:47:49;5.07;;;1.70;;
7829;SDS011;3960;51.86894000;5.39848000;2023-03-23T08:50:17;3.78;;;1.65;;
7829;SDS011;3960;51.86894000;5.39848000;2023-03-23T08:52:44;5.15;;;1.58;;
7829;SDS011;3960;51.86894000;5.39848000;2023-03-23T08:55:10;4.60;;;1.90;;
7829;SDS011;3960;51.86894000;5.39848000;2023-03-23T08:57:36;5.70;;;1.95;;
7829;SDS011;3960;51.86894000;5.39848000;2023-03-23T09:00:03;9.02;;;1.67;;
7829;SDS011;3960;51.86894000;5.39848000;2023-03-23T09:02:38;6.78;;;1.60;;
7829;SDS011;3960;51.86894000;5.39848000;2023-03-23T09:05:05;4.07;;;2.20;;
7829;SDS011;3960;51.86894000;5.39848000;2023-03-23T09:07:31;7.97;;;1.75;;
7829;SDS011;3960;51.86894000;5.39848000;2023-03-23T09:09:57;5.90;;;1.98;;
7829;SDS011;3960;51.86894000;5.39848000;2023-03-23T09:12:22;5.22;;;1.58;;
7829;SDS011;3960;51.86894000;5.39848000;2023-03-23T09:14:48;2.25;;;1.08;;
7829;SDS011;3960;51.86894000;5.39848000;2023-03-23T09:17:13;4.47;;;1.65;;
7829;SDS011;3960;51.86894000;5.39848000;2023-03-23T09:19:39;6.85;;;1.70;;
7829;SDS011;3960;51.86894000;5.39848000;2023-03-23T09:22:05;6.10;;;1.90;;
7829;SDS011;3960;51.86894000;5.39848000;2023-03-23T09:24:30;6.22;;;1.58;;
7829;SDS011;3960;51.86894000;5.39848000;2023-03-23T09:26:56;4.38;;;1.77;;
7829;SDS011;3960;51.86894000;5.39848000;2023-03-23T09:29:23;5.93;;;1.83;;
7829;SDS011;3960;51.86894000;5.39848000;2023-03-23T09:31:48;6.93;;;1.88;;
7829;SDS011;3960;51.86894000;5.39848000;2023-03-23T09:34:14;5.53;;;1.65;;
7829;SDS011;3960;51.86894000;5.39848000;2023-03-23T09:36:40;6.45;;;1.90;;
7829;SDS011;3960;51.86894000;5.39848000;2023-03-23T09:39:06;7.45;;;1.75;;
7829;SDS011;3960;51.86894000;5.39848000;2023-03-23T09:41:58;6.40;;;1.90;;
7829;SDS011;3960;51.86894000;5.39848000;2023-03-23T09:44:52;6.10;;;1.98;;
7829;SDS011;3960;51.86894000;5.39848000;2023-03-23T09:50:19;7.45;;;2.00;;
7829;SDS011;3960;51.86894000;5.39848000;2023-03-23T09:52:56;10.55;;;2.20;;
7829;SDS011;3960;51.86894000;5.39848000;2023-03-23T09:55:23;9.73;;;2.83;;
7829;SDS011;3960;51.86894000;5.39848000;2023-03-23T10:00:37;6.32;;;2.05;;
7829;SDS011;3960;51.86894000;5.39848000;2023-03-23T10:03:16;5.57;;;1.83;;
7829;SDS011;3960;51.86894000;5.39848000;2023-03-23T10:08:15;6.80;;;1.80;;
7829;SDS011;3960;51.86894000;5.39848000;2023-03-23T10:16:24;8.63;;;2.20;;
7829;SDS011;3960;51.86894000;5.39848000;2023-03-23T10:18:55;7.82;;;2.03;;
7829;SDS011;3960;51.86894000;5.39848000;2023-03-23T10:21:28;7.88;;;2.08;;
7829;SDS011;3960;51.86894000;5.39848000;2023-03-23T10:24:00;9.55;;;2.42;;
7829;SDS011;3960;51.86894000;5.39848000;2023-03-23T10:29:31;12.77;;;2.80;;
7829;SDS011;3960;51.86894000;5.39848000;2023-03-23T10:32:09;6.20;;;1.95;;
7829;SDS011;3960;51.86894000;5.39848000;2023-03-23T10:39:56;8.68;;;2.13;;
7829;SDS011;3960;51.86894000;5.39848000;2023-03-23T10:42:31;6.20;;;1.83;;
7829;SDS011;3960;51.86894000;5.39848000;2023-03-23T10:47:46;10.32;;;2.67;;
7829;SDS011;3960;51.86894000;5.39848000;2023-03-23T10:50:28;10.77;;;2.13;;
7829;SDS011;3960;51.86894000;5.39848000;2023-03-23T10:52:57;4.32;;;1.80;;
7829;SDS011;3960;51.86894000;5.39848000;2023-03-23T10:55:24;12.48;;;2.30;;
7829;SDS011;3960;51.86894000;5.39848000;2023-03-23T10:58:04;6.32;;;2.28;;
7829;SDS011;3960;51.86894000;5.39848000;2023-03-23T11:00:31;7.65;;;2.35;;
7829;SDS011;3960;51.86894000;5.39848000;2023-03-23T11:05:44;10.57;;;2.60;;
7829;SDS011;3960;51.86894000;5.39848000;2023-03-23T11:08:14;6.82;;;2.38;;
7829;SDS011;3960;51.86894000;5.39848000;2023-03-23T11:10:47;9.68;;;2.00;;
7829;SDS011;3960;51.86894000;5.39848000;2023-03-23T11:13:16;7.25;;;2.47;;
7829;SDS011;3960;51.86894000;5.39848000;2023-03-23T11:15:43;6.85;;;2.20;;
7829;SDS011;3960;51.86894000;5.39848000;2023-03-23T11:18:34;6.47;;;2.00;;
7829;SDS011;3960;51.86894000;5.39848000;2023-03-23T11:21:07;9.43;;;2.30;;
7829;SDS011;3960;51.86894000;5.39848000;2023-03-23T11:23:37;7.38;;;2.00;;
7829;SDS011;3960;51.86894000;5.39848000;2023-03-23T11:28:53;8.40;;;2.10;;
7829;SDS011;3960;51.86894000;5.39848000;2023-03-23T11:31:23;10.05;;;2.20;;
7829;SDS011;3960;51.86894000;5.39848000;2023-03-23T11:36:40;7.80;;;2.13;;
7829;SDS011;3960;51.86894000;5.39848000;2023-03-23T11:39:20;6.05;;;2.00;;
7829;SDS011;3960;51.86894000;5.39848000;2023-03-23T11:42:00;7.15;;;1.95;;
7829;SDS011;3960;51.86894000;5.39848000;2023-03-23T11:44:40;9.07;;;2.33;;
7829;SDS011;3960;51.86894000;5.39848000;2023-03-23T11:50:03;9.10;;;1.90;;
7829;SDS011;3960;51.86894000;5.39848000;2023-03-23T11:52:44;8.00;;;2.20;;
7829;SDS011;3960;51.86894000;5.39848000;2023-03-23T11:55:17;5.55;;;1.42;;
7829;SDS011;3960;51.86894000;5.39848000;2023-03-23T11:57:49;9.10;;;1.88;;
7829;SDS011;3960;51.86894000;5.39848000;2023-03-23T12:00:15;10.75;;;2.35;;
7829;SDS011;3960;51.86894000;5.39848000;2023-03-23T12:02:50;6.78;;;2.08;;
7829;SDS011;3960;51.86894000;5.39848000;2023-03-23T12:19:31;10.10;;;2.33;;
7829;SDS011;3960;51.86894000;5.39848000;2023-03-23T12:22:30;11.52;;;2.60;;
7829;SDS011;3960;51.86894000;5.39848000;2023-03-23T12:41:56;5.93;;;1.58;;
7829;SDS011;3960;51.86894000;5.39848000;2023-03-23T12:44:39;6.22;;;1.83;;
7829;SDS011;3960;51.86894000;5.39848000;2023-03-23T12:47:31;8.02;;;1.50;;
7829;SDS011;3960;51.86894000;5.39848000;2023-03-23T12:50:15;4.70;;;1.08;;
7829;SDS011;3960;51.86894000;5.39848000;2023-03-23T12:53:04;5.65;;;1.63;;
7829;SDS011;3960;51.86894000;5.39848000;2023-03-23T12:55:42;3.33;;;0.90;;
7829;SDS011;3960;51.86894000;5.39848000;2023-03-23T12:58:13;3.22;;;0.90;;
7829;SDS011;3960;51.86894000;5.39848000;2023-03-23T13:09:03;3.63;;;1.58;;
7829;SDS011;3960;51.86894000;5.39848000;2023-03-23T13:11:41;6.30;;;1.45;;
7829;SDS011;3960;51.86894000;5.39848000;2023-03-23T13:19:51;3.58;;;1.02;;
7829;SDS011;3960;51.86894000;5.39848000;2023-03-23T13:22:23;4.95;;;1.45;;
7829;SDS011;3960;51.86894000;5.39848000;2023-03-23T13:24:57;4.28;;;1.55;;
7829;SDS011;3960;51.86894000;5.39848000;2023-03-23T13:27:27;3.22;;;1.23;;
7829;SDS011;3960;51.86894000;5.39848000;2023-03-23T13:29:54;4.10;;;1.55;;
7829;SDS011;3960;51.86894000;5.39848000;2023-03-23T13:32:32;5.43;;;1.98;;
7829;SDS011;3960;51.86894000;5.39848000;2023-03-23T13:35:01;5.93;;;1.60;;
7829;SDS011;3960;51.86894000;5.39848000;2023-03-23T13:37:28;10.55;;;1.88;;
7829;SDS011;3960;51.86894000;5.39848000;2023-03-23T13:40:11;3.90;;;1.50;;
7829;SDS011;3960;51.86894000;5.39848000;2023-03-23T13:42:53;4.18;;;1.60;;
7829;SDS011;3960;51.86894000;5.39848000;2023-03-23T13:45:22;3.42;;;1.60;;
7829;SDS011;3960;51.86894000;5.39848000;2023-03-23T13:48:42;4.68;;;1.77;;
7829;SDS011;3960;51.86894000;5.39848000;2023-03-23T13:53:23;5.80;;;2.40;;
7829;SDS011;3960;51.86894000;5.39848000;2023-03-23T13:55:51;10.05;;;2.10;;
7829;SDS011;3960;51.86894000;5.39848000;2023-03-23T13:58:30;8.50;;;2.45;;
7829;SDS011;3960;51.86894000;5.39848000;2023-03-23T14:03:37;10.43;;;1.98;;
7829;SDS011;3960;51.86894000;5.39848000;2023-03-23T14:11:00;6.43;;;1.90;;
7829;SDS011;3960;51.86894000;5.39848000;2023-03-23T14:13:51;5.03;;;1.80;;
7829;SDS011;3960;51.86894000;5.39848000;2023-03-23T14:16:31;8.95;;;2.10;;
7829;SDS011;3960;51.86894000;5.39848000;2023-03-23T14:19:00;9.45;;;1.98;;
7829;SDS011;3960;51.86894000;5.39848000;2023-03-23T14:23:59;4.43;;;1.80;;
7829;SDS011;3960;51.86894000;5.39848000;2023-03-23T14:26:28;7.18;;;1.55;;
7829;SDS011;3960;51.86894000;5.39848000;2023-03-23T14:28:54;8.65;;;2.25;;
7829;SDS011;3960;51.86894000;5.39848000;2023-03-23T14:31:21;5.70;;;1.60;;
7829;SDS011;3960;51.86894000;5.39848000;2023-03-23T14:33:51;6.43;;;1.67;;
7829;SDS011;3960;51.86894000;5.39848000;2023-03-23T14:36:28;6.55;;;1.67;;
7829;SDS011;3960;51.86894000;5.39848000;2023-03-23T14:39:17;5.45;;;2.30;;
7829;SDS011;3960;51.86894000;5.39848000;2023-03-23T14:42:01;8.18;;;2.22;;
7829;SDS011;3960;51.86894000;5.39848000;2023-03-23T14:44:32;7.05;;;1.90;;
7829;SDS011;3960;51.86894000;5.39848000;2023-03-23T14:47:07;9.63;;;1.85;;
7829;SDS011;3960;51.86894000;5.39848000;2023-03-23T14:49:55;8.73;;;1.98;;
7829;SDS011;3960;51.86894000;5.39848000;2023-03-23T14:52:27;5.43;;;1.80;;
7829;SDS011;3960;51.86894000;5.39848000;2023-03-23T14:54:54;6.38;;;2.05;;
7829;SDS011;3960;51.86894000;5.39848000;2023-03-23T14:59:48;8.65;;;1.95;;
7829;SDS011;3960;51.86894000;5.39848000;2023-03-23T15:02:20;6.45;;;1.88;;
7829;SDS011;3960;51.86894000;5.39848000;2023-03-23T15:04:52;5.00;;;2.03;;
7829;SDS011;3960;51.86894000;5.39848000;2023-03-23T15:07:22;10.02;;;1.98;;
7829;SDS011;3960;51.86894000;5.39848000;2023-03-23T15:09:51;6.63;;;1.90;;
7829;SDS011;3960;51.86894000;5.39848000;2023-03-23T15:12:20;10.43;;;2.60;;
7829;SDS011;3960;51.86894000;5.39848000;2023-03-23T15:14:49;8.20;;;2.08;;
7829;SDS011;3960;51.86894000;5.39848000;2023-03-23T15:17:18;9.35;;;2.03;;
7829;SDS011;3960;51.86894000;5.39848000;2023-03-23T15:19:46;9.07;;;2.55;;
7829;SDS011;3960;51.86894000;5.39848000;2023-03-23T15:22:22;8.80;;;2.60;;
7829;SDS011;3960;51.86894000;5.39848000;2023-03-23T15:29:54;8.00;;;2.20;;
7829;SDS011;3960;51.86894000;5.39848000;2023-03-23T15:32:40;7.05;;;2.15;;